createdAt,value
2019-04-28T00:02:01.351Z,23.17
2019-04-28T00:04:33.275Z,19.40
2019-04-28T00:07:04.578Z,19.80
2019-04-28T00:09:36.125Z,20.48
2019-04-28T00:12:07.950Z,22.60
2019-04-28T00:14:39.315Z,20.13
2019-04-28T00:17:11.200Z,20.20
2019-04-28T00:19:43.123Z,20.13
2019-04-28T00:22:33.230Z,20.53
2019-04-28T00:25:17.744Z,20.17
2019-04-28T00:27:49.120Z,22.33
2019-04-28T00:30:21.758Z,20.57
2019-04-28T00:32:53.302Z,25.13
2019-04-28T00:35:24.776Z,23.47
2019-04-28T00:37:55.966Z,25.80
2019-04-28T00:40:27.694Z,26.73
2019-04-28T00:43:00.808Z,22.77
2019-04-28T00:45:31.775Z,21.47
2019-04-28T00:48:02.998Z,24.63
2019-04-28T00:50:34.510Z,23.50
2019-04-28T00:53:05.807Z,22.20
2019-04-28T00:55:37.100Z,24.07
2019-04-28T00:58:08.387Z,25.57
2019-04-28T01:00:41.533Z,22.80
2019-04-28T01:03:12.945Z,25.40
2019-04-28T01:05:44.454Z,24.37
2019-04-28T01:08:15.823Z,22.97
2019-04-28T01:10:47.132Z,22.40
2019-04-28T01:13:18.614Z,25.53
2019-04-28T01:16:05.099Z,26.30
2019-04-28T01:18:49.756Z,24.37
2019-04-28T01:21:22.607Z,25.53
2019-04-28T01:23:53.777Z,24.63
2019-04-28T01:26:24.992Z,31.37
2019-04-28T01:28:56.167Z,25.13
2019-04-28T01:31:42.141Z,25.53
2019-04-28T01:34:20.650Z,25.47
2019-04-28T01:36:53.148Z,23.20
2019-04-28T01:39:24.762Z,27.50
2019-04-28T01:41:56.570Z,28.67
2019-04-28T01:44:29.221Z,27.20
2019-04-28T01:47:01.216Z,26.57
2019-04-28T01:49:32.711Z,23.42
2019-04-28T01:52:04.499Z,27.67
2019-04-28T01:54:35.751Z,28.37
2019-04-28T01:57:07.054Z,24.23
2019-04-28T01:59:40.365Z,26.60
2019-04-28T02:02:11.919Z,27.00
2019-04-28T02:04:45.611Z,30.37
2019-04-28T02:07:20.613Z,30.72
2019-04-28T02:09:52.530Z,27.40
2019-04-28T02:12:24.188Z,27.70
2019-04-28T02:14:55.908Z,24.57
2019-04-28T02:17:27.416Z,26.73
2019-04-28T02:20:00.436Z,29.03
2019-04-28T02:22:36.961Z,28.47
2019-04-28T02:25:09.956Z,30.50
2019-04-28T02:27:41.505Z,27.93
2019-04-28T02:30:12.967Z,31.33
2019-04-28T02:32:44.179Z,27.10
2019-04-28T02:35:15.747Z,29.37
2019-04-28T02:37:47.265Z,27.03
2019-04-28T02:40:20.740Z,32.85
2019-04-28T02:42:52.391Z,34.90
2019-04-28T02:45:24.081Z,33.73
2019-04-28T02:48:00.987Z,29.47
2019-04-28T03:49:32.667Z,29.45
2019-04-28T03:52:11.636Z,27.10
2019-04-28T03:54:43.096Z,34.17
2019-04-28T03:57:14.742Z,32.83
2019-04-28T03:59:51.132Z,29.10
2019-04-28T04:02:22.944Z,23.80
2019-04-28T04:10:11.402Z,31.33
2019-04-28T09:58:58.921Z,9.43
2019-04-28T10:01:30.335Z,12.57
2019-04-28T10:04:01.556Z,10.43
2019-04-28T10:06:35.960Z,9.73
2019-04-28T10:09:10.051Z,7.75
2019-04-28T10:11:45.489Z,7.73
2019-04-28T10:14:16.994Z,7.47
2019-04-28T10:16:50.342Z,6.93
2019-04-28T10:19:22.494Z,4.27
2019-04-28T10:21:55.396Z,7.47
2019-04-28T10:24:27.193Z,6.53
2019-04-28T10:26:59.176Z,6.03
2019-04-28T10:29:44.661Z,4.03
2019-04-28T10:32:17.441Z,3.67
2019-04-28T10:34:55.113Z,8.43
2019-04-28T10:37:21.957Z,5.87
2019-04-28T10:40:05.069Z,5.33
2019-04-28T10:42:36.807Z,4.70
2019-04-28T10:45:10.605Z,5.83
2019-04-28T10:47:42.401Z,5.73
2019-04-28T10:50:14.017Z,3.47
2019-04-28T10:52:45.437Z,6.20
2019-04-28T10:55:19.160Z,5.43
2019-04-28T10:57:50.789Z,4.90
2019-04-28T11:00:25.289Z,5.17
2019-04-28T11:03:00.061Z,3.73
2019-04-28T11:05:39.540Z,7.17
2019-04-28T11:08:25.977Z,4.00
2019-04-28T11:10:59.014Z,4.27
2019-04-28T11:13:32.991Z,3.62
2019-04-28T11:16:04.533Z,6.57
2019-04-28T11:18:36.056Z,7.03
2019-04-28T11:21:11.304Z,4.23
2019-04-28T11:23:42.883Z,6.03
2019-04-28T11:26:15.245Z,4.57
2019-04-28T11:28:47.094Z,5.17
2019-04-28T11:31:18.437Z,5.15
2019-04-28T11:34:13.771Z,5.23
2019-04-28T11:36:44.970Z,5.40
2019-04-28T11:39:20.940Z,6.30
2019-04-28T11:41:53.083Z,5.37
2019-04-28T11:44:26.510Z,6.00
2019-04-28T11:46:57.892Z,6.40
2019-04-28T11:49:29.631Z,4.60
2019-04-28T11:52:03.067Z,5.53
2019-04-28T11:54:49.892Z,6.33
2019-04-28T11:57:21.689Z,7.28
2019-04-28T11:59:54.161Z,4.57
2019-04-28T12:02:25.421Z,5.73
2019-04-28T12:04:58.262Z,5.97
2019-04-28T12:07:30.035Z,6.33
2019-04-28T12:10:52.324Z,7.80
2019-04-28T12:13:43.235Z,10.00
2019-04-28T12:16:36.656Z,7.07
2019-04-28T12:19:25.273Z,5.70
2019-04-28T12:21:58.663Z,8.83
2019-04-28T12:24:43.954Z,5.10
2019-04-28T12:27:15.733Z,5.00
2019-04-28T12:29:47.467Z,6.17
2019-04-28T12:32:20.711Z,6.30
2019-04-28T12:34:53.333Z,6.80
2019-04-28T12:37:24.535Z,6.03
2019-04-28T12:39:56.783Z,7.33
2019-04-28T12:42:30.093Z,7.80
2019-04-28T12:45:02.538Z,6.17
2019-04-28T12:47:39.173Z,5.97
2019-04-28T12:50:24.219Z,4.33
2019-04-28T12:52:55.572Z,4.87
2019-04-28T12:55:27.332Z,5.40
2019-04-28T12:57:59.012Z,8.40
2019-04-28T13:00:45.585Z,8.15
2019-04-28T13:03:51.593Z,8.27
2019-04-28T13:06:25.769Z,6.50
2019-04-28T13:08:57.401Z,7.77
2019-04-28T13:11:34.081Z,6.77
2019-04-28T13:14:06.967Z,7.27
2019-04-28T13:16:41.593Z,7.70
2019-04-28T13:19:14.010Z,6.00
2019-04-28T13:21:47.070Z,6.40
2019-04-28T13:24:18.785Z,7.80
2019-04-28T13:26:56.228Z,9.43
2019-04-28T13:29:30.879Z,7.30
2019-04-28T13:32:02.183Z,11.18
2019-04-28T13:34:35.246Z,9.27
2019-04-28T13:37:06.930Z,7.43
2019-04-28T13:39:44.974Z,8.77
2019-04-28T13:42:18.654Z,7.30
2019-04-28T13:45:11.300Z,12.63
2019-04-28T13:47:43.050Z,12.17
2019-04-28T13:50:22.608Z,11.33
2019-04-28T13:52:54.398Z,7.90
2019-04-28T13:55:40.287Z,5.20
2019-04-28T13:58:12.203Z,7.70
2019-04-28T14:01:04.327Z,9.20
2019-04-28T14:03:57.883Z,10.85
2019-04-28T14:06:30.706Z,7.33
2019-04-28T14:09:02.819Z,10.30
2019-04-28T14:11:43.242Z,8.87
2019-04-28T14:14:16.309Z,8.53
2019-04-28T14:16:48.039Z,8.27
2019-04-28T14:19:19.655Z,7.97
2019-04-28T14:21:51.770Z,12.10
2019-04-28T14:24:23.133Z,7.00
2019-04-28T14:26:54.398Z,10.67
2019-04-28T14:29:25.794Z,6.03
2019-04-28T14:31:58.824Z,8.93
2019-04-28T14:34:37.601Z,8.83
2019-04-28T14:37:21.689Z,11.33
2019-04-28T14:39:51.626Z,8.30
2019-04-28T14:42:24.187Z,7.27
2019-04-28T14:44:55.914Z,9.63
2019-04-28T14:47:27.432Z,8.17
2019-04-28T14:50:02.683Z,6.63
2019-04-28T14:52:32.989Z,6.77
2019-04-28T14:55:04.554Z,11.67
2019-04-28T14:57:41.179Z,7.03
2019-04-28T15:00:15.274Z,8.70
2019-04-28T15:02:53.163Z,8.98
2019-04-28T15:05:46.199Z,7.07
2019-04-28T15:08:36.358Z,9.67
2019-04-28T15:11:17.067Z,7.83
2019-04-28T15:13:50.174Z,10.40
2019-04-28T15:16:21.554Z,8.98
2019-04-28T15:19:04.977Z,7.70
2019-04-28T15:21:36.287Z,9.47
2019-04-28T15:24:07.921Z,7.40
2019-04-28T15:26:39.598Z,10.57
2019-04-28T15:29:11.359Z,8.40
2019-04-28T15:31:54.135Z,7.63
2019-04-28T15:34:25.493Z,5.90
2019-04-28T15:37:09.215Z,7.77
2019-04-28T15:39:34.429Z,9.30
2019-04-28T15:42:05.929Z,9.17
2019-04-28T15:44:46.272Z,7.33
2019-04-28T15:47:18.116Z,7.37
2019-04-28T15:49:49.747Z,7.00
2019-04-28T15:52:23.797Z,9.13
2019-04-28T15:55:01.130Z,11.97
2019-04-28T15:57:33.693Z,10.27
2019-04-28T16:00:06.623Z,7.07
2019-04-28T16:02:42.452Z,8.60
2019-04-28T16:05:14.157Z,9.87
2019-04-28T16:07:45.357Z,7.12
2019-04-28T16:10:18.160Z,8.03
2019-04-28T16:12:52.245Z,7.50
2019-04-28T16:15:23.911Z,11.20
2019-04-28T16:17:56.896Z,8.90
2019-04-28T16:20:30.049Z,10.43
2019-04-28T16:23:01.470Z,10.07
2019-04-28T16:25:38.403Z,8.50
2019-04-28T16:28:09.918Z,10.30
2019-04-28T16:30:42.285Z,6.07
2019-04-28T16:33:15.676Z,8.93
2019-04-28T16:35:47.313Z,5.40
2019-04-28T16:38:19.477Z,10.48
2019-04-28T16:40:53.763Z,10.30
2019-04-28T16:43:28.329Z,10.00
2019-04-28T16:46:00.704Z,9.70
2019-04-28T16:48:36.437Z,8.47
2019-04-28T16:51:14.500Z,8.77
2019-04-28T16:53:44.715Z,9.67
2019-04-28T16:56:33.421Z,6.90
2019-04-28T16:59:22.230Z,10.63
2019-04-28T17:02:03.844Z,11.60
2019-04-28T17:04:35.413Z,7.07
2019-04-28T17:07:07.105Z,7.83
2019-04-28T17:09:38.867Z,6.90
2019-04-28T17:12:10.735Z,9.77
2019-04-28T17:14:42.456Z,6.80
2019-04-28T17:17:14.283Z,6.00
2019-04-28T17:19:46.136Z,8.80
2019-04-28T17:22:17.886Z,6.60
2019-04-28T17:24:49.931Z,4.30
2019-04-28T17:27:21.365Z,7.97
2019-04-28T17:29:52.567Z,8.20
2019-04-28T17:32:24.647Z,5.72
2019-04-28T17:34:59.326Z,8.33
2019-04-28T17:37:31.072Z,6.50
2019-04-28T17:40:03.013Z,5.10
2019-04-28T17:42:34.341Z,4.57
2019-04-28T17:45:06.647Z,6.60
2019-04-28T17:47:38.272Z,6.43
2019-04-28T17:50:11.711Z,6.17
2019-04-28T17:52:43.012Z,7.77
2019-04-28T17:55:14.455Z,5.80
2019-04-28T17:57:45.766Z,4.10
2019-04-28T18:00:30.982Z,4.80
2019-04-28T18:03:14.441Z,4.33
2019-04-28T18:05:50.054Z,7.03
2019-04-28T18:08:22.386Z,6.77
2019-04-28T18:10:53.852Z,5.57
2019-04-28T18:13:25.104Z,5.20
2019-04-28T18:16:11.669Z,4.10
2019-04-28T18:18:46.247Z,4.93
2019-04-28T18:21:18.104Z,6.97
2019-04-28T18:23:49.794Z,3.53
2019-04-28T18:26:21.476Z,4.03
2019-04-28T18:28:53.081Z,4.73
2019-04-28T18:31:43.898Z,5.80
2019-04-28T18:34:32.607Z,3.20
2019-04-28T18:37:25.685Z,6.70
2019-04-28T18:40:16.787Z,5.17
2019-04-28T18:42:53.727Z,3.37
2019-04-28T18:45:24.969Z,5.92
2019-04-28T18:47:56.346Z,4.93
2019-04-28T18:50:28.009Z,6.63
2019-04-28T18:53:01.889Z,10.70
2019-04-28T18:55:33.870Z,12.98
2019-04-28T18:58:05.151Z,9.07
2019-04-28T19:00:38.578Z,7.42
2019-04-28T19:03:09.857Z,5.00
2019-04-28T19:05:42.959Z,5.30
2019-04-28T19:08:33.237Z,5.13
2019-04-28T19:11:29.551Z,6.30
2019-04-28T19:14:10.333Z,5.57
2019-04-28T19:16:59.996Z,6.87
2019-04-28T19:19:32.119Z,6.83
2019-04-28T19:22:03.432Z,4.87
2019-04-28T19:24:34.807Z,5.97
2019-04-28T19:27:06.300Z,6.40
2019-04-28T19:29:37.541Z,5.60
2019-04-28T19:32:09.326Z,10.43
2019-04-28T19:34:41.230Z,8.80
2019-04-28T19:37:12.853Z,10.27
2019-04-28T19:39:44.643Z,10.27
2019-04-28T19:42:16.833Z,9.43
2019-04-28T19:44:48.054Z,7.47
2019-04-28T19:47:19.642Z,7.80
2019-04-28T19:49:51.285Z,7.27
2019-04-28T19:52:23.509Z,9.37
2019-04-28T19:55:23.299Z,8.95
2019-04-28T19:58:20.309Z,7.53
2019-04-28T20:00:55.644Z,8.43
2019-04-28T20:03:27.136Z,8.03
2019-04-28T20:05:58.686Z,7.30
2019-04-28T20:08:33.121Z,8.70
2019-04-28T20:11:04.305Z,6.63
2019-04-28T20:13:35.587Z,5.97
2019-04-28T20:16:08.075Z,7.45
2019-04-28T20:18:39.701Z,8.50
2019-04-28T20:21:11.237Z,7.87
2019-04-28T20:23:42.938Z,7.67
2019-04-28T20:26:14.963Z,7.80
2019-04-28T20:28:46.193Z,10.37
2019-04-28T20:31:17.926Z,8.43
2019-04-28T20:33:50.702Z,7.53
2019-04-28T20:36:32.939Z,6.30
2019-04-28T20:39:09.749Z,11.87
2019-04-28T20:41:43.159Z,9.17
2019-04-28T20:44:15.148Z,12.80
2019-04-28T20:46:46.590Z,6.87
2019-04-28T20:49:17.899Z,7.00
2019-04-28T20:51:49.241Z,8.63
2019-04-28T20:54:20.479Z,6.87
2019-04-28T20:56:51.930Z,10.30
2019-04-28T20:59:23.192Z,9.70
2019-04-28T21:06:05.776Z,10.77
2019-04-28T21:08:40.403Z,12.23
2019-04-28T21:11:28.497Z,6.07
2019-04-28T21:17:16.044Z,10.63
2019-04-28T21:17:55.673Z,10.03
2019-04-28T21:21:20.282Z,12.47
2019-04-28T21:24:38.467Z,12.43
2019-04-28T21:27:10.890Z,11.87
2019-04-28T21:29:42.877Z,10.33
2019-04-28T21:33:05.531Z,9.43
2019-04-28T21:36:25.432Z,9.43
2019-04-28T21:38:57.320Z,12.50
2019-04-28T21:41:28.737Z,12.47
2019-04-28T21:44:43.126Z,9.60
2019-04-28T21:48:34.909Z,7.80
2019-04-28T21:55:04.164Z,10.20
2019-04-28T21:58:32.907Z,8.33
2019-04-28T22:00:56.314Z,11.23
2019-04-28T22:03:27.984Z,10.90
2019-04-28T22:06:47.308Z,9.50
2019-04-28T22:09:18.895Z,9.10
2019-04-28T22:11:50.214Z,13.00
2019-04-28T22:14:21.978Z,12.67
2019-04-28T22:16:58.095Z,10.13
2019-04-28T22:20:03.043Z,13.70
2019-04-28T22:22:32.092Z,12.93
2019-04-28T22:29:45.866Z,9.13
2019-04-28T22:32:47.572Z,10.67
2019-04-28T22:35:22.237Z,11.07
2019-04-28T22:38:00.774Z,10.67
2019-04-28T22:40:32.068Z,9.73
2019-04-28T22:43:45.281Z,13.30
2019-04-28T22:46:16.701Z,15.37
2019-04-28T22:57:33.745Z,13.30
2019-04-28T23:00:14.248Z,15.17
2019-04-28T23:02:45.476Z,11.50
2019-04-28T23:05:22.535Z,13.35
2019-04-28T23:07:54.226Z,14.73
2019-04-28T23:10:26.006Z,13.10
2019-04-28T23:12:57.792Z,12.57
2019-04-28T23:16:32.352Z,14.23
2019-04-28T23:19:39.985Z,9.97
2019-04-28T23:22:19.572Z,11.88
2019-04-28T23:24:51.181Z,14.97
2019-04-28T23:27:22.885Z,11.10
2019-04-28T23:29:54.864Z,15.37
2019-04-28T23:32:46.357Z,11.03
2019-04-28T23:35:24.533Z,12.83
2019-04-28T23:37:56.035Z,15.60
2019-04-28T23:40:27.912Z,12.60
2019-04-28T23:43:04.233Z,14.43
2019-04-28T23:45:35.718Z,11.73
2019-04-28T23:48:26.772Z,12.73
2019-04-28T23:51:10.444Z,17.83
2019-04-28T23:54:03.220Z,11.33
2019-04-28T23:56:34.978Z,12.27
2019-04-28T23:59:27.345Z,15.70
